createdAt,value
2023-12-11T00:01:54.374Z,97550.81
2023-12-11T00:04:21.695Z,97544.97
2023-12-11T00:06:48.796Z,97546.53
2023-12-11T00:09:16.157Z,97536.41
2023-12-11T00:11:43.223Z,97528.84
2023-12-11T00:14:10.558Z,97526.44
2023-12-11T00:16:37.554Z,97506.69
2023-12-11T00:19:04.993Z,97511.56
2023-12-11T00:21:32.132Z,97499.66
2023-12-11T00:23:59.349Z,97500.66
2023-12-11T00:26:26.357Z,97491.78
2023-12-11T00:28:53.761Z,97496.56
2023-12-11T00:31:20.912Z,97503.31
2023-12-11T00:33:48.318Z,97493.66
2023-12-11T00:36:15.411Z,97498.59
2023-12-11T00:38:42.693Z,97499.44
2023-12-11T00:41:09.838Z,97498.53
2023-12-11T00:43:44.847Z,97504.78
2023-12-11T00:46:15.540Z,97531.78
2023-12-11T00:48:43.060Z,97513.94
2023-12-11T00:51:21.840Z,97511.94
2023-12-11T00:53:49.728Z,97508.19
2023-12-11T00:56:17.166Z,97509.78
2023-12-11T00:58:44.918Z,97494.56
2023-12-11T01:01:12.241Z,97488.41
2023-12-11T01:03:40.252Z,97502.44
2023-12-11T01:06:07.833Z,97510.25
2023-12-11T01:08:40.227Z,97505.84
2023-12-11T01:11:08.536Z,97480.28
2023-12-11T01:13:35.864Z,97486.47
2023-12-11T01:16:03.012Z,97483.00
2023-12-11T01:18:30.493Z,97480.28
2023-12-11T01:20:57.721Z,97477.50
2023-12-11T01:23:25.240Z,97463.63
2023-12-11T01:25:52.593Z,97472.41
2023-12-11T01:28:19.979Z,97476.75
2023-12-11T01:30:47.176Z,97489.88
2023-12-11T01:33:14.710Z,97496.75
2023-12-11T01:35:41.844Z,97490.56
2023-12-11T01:38:09.167Z,97493.25
2023-12-11T01:40:36.181Z,97503.53
2023-12-11T01:43:18.835Z,97498.19
2023-12-11T01:46:02.147Z,97499.13
2023-12-11T01:48:30.338Z,97493.72
2023-12-11T01:50:57.726Z,97491.84
2023-12-11T01:53:27.721Z,97476.88
2023-12-11T01:55:55.115Z,97485.38
2023-12-11T01:58:23.586Z,97507.13
2023-12-11T02:00:50.967Z,97506.28
2023-12-11T02:03:19.690Z,97491.38
2023-12-11T02:05:47.646Z,97503.41
2023-12-11T02:08:16.661Z,97497.47
2023-12-11T02:10:43.886Z,97488.00
2023-12-11T02:13:11.698Z,97484.66
2023-12-11T02:15:47.893Z,97466.63
2023-12-11T02:18:19.759Z,97451.03
2023-12-11T02:20:47.225Z,97458.38
2023-12-11T02:23:48.096Z,97460.38
2023-12-11T02:26:18.513Z,97450.72
2023-12-11T02:28:46.911Z,97443.88
2023-12-11T02:31:14.326Z,97429.75
2023-12-11T02:33:42.058Z,97424.59
2023-12-11T02:36:09.973Z,97406.31
2023-12-11T02:38:37.479Z,97403.56
2023-12-11T02:41:05.183Z,97397.63
2023-12-11T02:43:32.737Z,97400.06
2023-12-11T02:45:59.803Z,97402.53
2023-12-11T02:48:27.505Z,97394.50
2023-12-11T02:50:55.044Z,97380.88
2023-12-11T02:53:22.445Z,97372.31
2023-12-11T02:55:49.396Z,97353.94
2023-12-11T02:58:16.736Z,97350.09
2023-12-11T03:00:43.751Z,97348.69
2023-12-11T03:03:11.093Z,97361.97
2023-12-11T03:05:38.507Z,97366.38
2023-12-11T03:08:06.897Z,97375.16
2023-12-11T03:10:34.317Z,97396.47
2023-12-11T03:13:01.709Z,97401.53
2023-12-11T03:15:28.741Z,97396.06
2023-12-11T03:17:56.070Z,97394.34
2023-12-11T03:20:23.222Z,97383.97
2023-12-11T03:22:50.571Z,97381.56
2023-12-11T03:25:17.860Z,97383.59
2023-12-11T03:27:45.196Z,97392.97
2023-12-11T03:30:12.238Z,97379.41
2023-12-11T03:32:40.014Z,97372.75
2023-12-11T03:35:07.335Z,97377.00
2023-12-11T03:37:34.645Z,97375.09
2023-12-11T03:40:01.962Z,97382.81
2023-12-11T03:42:29.437Z,97384.31
2023-12-11T03:44:56.526Z,97396.31
2023-12-11T03:47:24.835Z,97406.63
2023-12-11T03:49:52.854Z,97409.00
2023-12-11T03:52:20.259Z,97401.22
2023-12-11T03:54:47.780Z,97406.44
2023-12-11T03:57:15.043Z,97416.09
2023-12-11T03:59:42.132Z,97412.72
2023-12-11T04:02:09.610Z,97416.50
2023-12-11T04:04:36.820Z,97411.25
2023-12-11T04:07:04.512Z,97420.06
2023-12-11T04:09:31.615Z,97414.81
2023-12-11T04:11:58.881Z,97423.06
2023-12-11T04:14:25.955Z,97430.47
2023-12-11T04:16:53.213Z,97429.63
2023-12-11T04:19:20.350Z,97433.88
2023-12-11T04:21:47.862Z,97442.28
2023-12-11T04:24:15.400Z,97437.88
2023-12-11T04:26:42.924Z,97451.91
2023-12-11T04:29:09.926Z,97450.09
2023-12-11T04:31:37.247Z,97457.09
2023-12-11T04:34:04.549Z,97457.94
2023-12-11T04:36:31.984Z,97463.03
2023-12-11T04:38:59.020Z,97457.09
2023-12-11T04:41:26.412Z,97451.44
2023-12-11T04:43:53.475Z,97460.72
2023-12-11T04:46:20.875Z,97463.97
2023-12-11T04:48:48.105Z,97461.50
2023-12-11T04:51:15.506Z,97457.22
2023-12-11T04:53:42.566Z,97459.47
2023-12-11T04:56:10.388Z,97458.56
2023-12-11T04:58:37.486Z,97450.31
2023-12-11T05:01:05.274Z,97453.69
2023-12-11T05:03:32.453Z,97458.78
2023-12-11T05:06:00.096Z,97458.94
2023-12-11T05:08:30.234Z,97460.47
2023-12-11T05:10:58.311Z,97470.88
2023-12-11T05:13:25.314Z,97462.78
2023-12-11T05:15:56.286Z,97460.25
2023-12-11T05:18:23.436Z,97468.13
2023-12-11T05:20:50.948Z,97457.78
2023-12-11T05:23:18.013Z,97461.25
2023-12-11T05:25:45.469Z,97461.34
2023-12-11T05:28:12.683Z,97455.06
2023-12-11T05:30:40.050Z,97467.28
2023-12-11T05:33:07.058Z,97470.66
2023-12-11T05:35:34.655Z,97466.03
2023-12-11T05:38:01.664Z,97458.16
2023-12-11T05:40:28.985Z,97459.19
2023-12-11T05:42:56.135Z,97453.06
2023-12-11T05:45:23.439Z,97460.09
2023-12-11T05:47:50.495Z,97461.00
2023-12-11T05:50:17.975Z,97459.25
2023-12-11T05:52:45.750Z,97457.47
2023-12-11T05:55:13.726Z,97454.94
2023-12-11T05:57:40.903Z,97456.38
2023-12-11T06:00:09.341Z,97448.69
2023-12-11T06:02:36.505Z,97444.13
2023-12-11T06:05:04.183Z,97442.56
2023-12-11T06:07:31.438Z,97442.56
2023-12-11T06:09:58.924Z,97447.66
2023-12-11T06:12:25.997Z,97435.88
2023-12-11T06:14:53.335Z,97447.59
2023-12-11T06:17:20.912Z,97449.00
2023-12-11T06:19:49.617Z,97460.09
2023-12-11T06:22:16.668Z,97451.31
2023-12-11T06:24:45.217Z,97448.75
2023-12-11T06:27:12.488Z,97454.63
2023-12-11T06:29:40.995Z,97457.94
2023-12-11T06:32:09.588Z,97461.63
2023-12-11T06:34:37.649Z,97446.00
2023-12-11T06:37:05.203Z,97449.44
2023-12-11T06:39:32.959Z,97445.88
2023-12-11T06:42:00.535Z,97453.69
2023-12-11T06:44:28.231Z,97458.94
2023-12-11T06:46:55.853Z,97465.97
2023-12-11T06:49:23.482Z,97473.91
2023-12-11T06:51:51.515Z,97473.84
2023-12-11T06:54:19.519Z,97473.75
2023-12-11T06:56:46.674Z,97464.09
2023-12-11T06:59:13.995Z,97467.59
2023-12-11T07:01:41.477Z,97474.59
2023-12-11T07:04:09.266Z,97483.16
2023-12-11T07:06:36.625Z,97483.22
2023-12-11T07:09:04.370Z,97485.69
2023-12-11T07:11:31.823Z,97500.38
2023-12-11T07:13:59.221Z,97488.03
2023-12-11T07:16:26.403Z,97501.06
2023-12-11T07:18:54.698Z,97489.41
2023-12-11T07:21:22.164Z,97491.81
2023-12-11T07:23:50.074Z,97491.56
2023-12-11T07:26:17.661Z,97491.56
2023-12-11T07:29:03.157Z,97493.09
2023-12-11T07:31:30.144Z,97479.97
2023-12-11T07:33:57.740Z,97482.38
2023-12-11T07:36:25.327Z,97482.03
2023-12-11T07:38:52.679Z,97477.56
2023-12-11T07:41:21.862Z,97479.09
2023-12-11T07:43:49.562Z,97484.94
2023-12-11T07:46:21.537Z,97481.41
2023-12-11T07:48:49.171Z,97477.69
2023-12-11T07:51:19.969Z,97480.22
2023-12-11T07:53:48.806Z,97473.25
2023-12-11T07:56:24.309Z,97476.75
2023-12-11T07:58:53.056Z,97472.88
2023-12-11T08:01:21.004Z,97476.94
2023-12-11T08:03:48.995Z,97467.25
2023-12-11T08:06:17.346Z,97462.69
2023-12-11T08:08:45.025Z,97459.88
2023-12-11T08:11:23.665Z,97453.59
2023-12-11T08:13:51.010Z,97448.94
2023-12-11T08:16:18.807Z,97442.25
2023-12-11T08:18:46.434Z,97455.03
2023-12-11T08:21:14.044Z,97451.56
2023-12-11T08:23:45.104Z,97448.03
2023-12-11T08:26:16.445Z,97434.03
2023-12-11T08:28:43.835Z,97430.56
2023-12-11T08:31:11.263Z,97422.06
2023-12-11T08:33:38.965Z,97423.00
2023-12-11T08:36:07.414Z,97430.38
2023-12-11T08:38:34.792Z,97439.31
2023-12-11T08:41:01.751Z,97447.13
2023-12-11T08:43:29.151Z,97439.19
2023-12-11T08:45:57.205Z,97430.19
2023-12-11T08:48:28.329Z,97432.44
2023-12-11T08:50:55.991Z,97434.63
2023-12-11T08:54:04.776Z,97438.78
2023-12-11T08:56:31.788Z,97443.50
2023-12-11T08:58:59.155Z,97441.41
2023-12-11T09:01:26.200Z,97446.41
2023-12-11T09:03:53.591Z,97446.91
2023-12-11T09:06:20.859Z,97437.22
2023-12-11T09:08:48.335Z,97438.69
2023-12-11T09:11:15.381Z,97445.38
2023-12-11T09:14:00.632Z,97439.94
2023-12-11T09:16:38.682Z,97436.81
2023-12-11T09:19:20.119Z,97413.66
2023-12-11T09:21:48.967Z,97421.44
2023-12-11T09:24:16.792Z,97410.06
2023-12-11T09:26:43.997Z,97412.59
2023-12-11T09:29:11.827Z,97405.31
2023-12-11T09:31:39.560Z,97402.59
2023-12-11T09:34:07.065Z,97391.97
2023-12-11T09:36:34.737Z,97401.66
2023-12-11T09:39:01.997Z,97397.31
2023-12-11T09:41:41.326Z,97396.13
2023-12-11T09:44:10.132Z,97400.38
2023-12-11T09:47:40.563Z,97403.00
2023-12-11T09:50:09.223Z,97398.66
2023-12-11T09:52:43.813Z,97392.03
2023-12-11T09:55:12.009Z,97381.13
2023-12-11T09:57:42.289Z,97383.59
2023-12-11T10:00:13.065Z,97379.84
2023-12-11T10:02:42.363Z,97390.00
2023-12-11T10:05:12.165Z,97381.75
2023-12-11T10:07:42.293Z,97377.72
2023-12-11T10:10:31.378Z,97373.19
2023-12-11T10:12:59.582Z,97374.50
2023-12-11T10:15:33.378Z,97373.97
2023-12-11T10:18:16.418Z,97381.38
2023-12-11T10:20:44.154Z,97371.44
2023-12-11T10:23:20.067Z,97360.03
2023-12-11T10:25:54.366Z,97362.28
2023-12-11T10:28:25.296Z,97363.69
2023-12-11T10:31:00.757Z,97358.59
2023-12-11T10:33:32.486Z,97355.59
2023-12-11T10:36:20.431Z,97349.50
2023-12-11T10:38:47.770Z,97352.69
2023-12-11T10:41:27.734Z,97346.19
2023-12-11T10:44:13.132Z,97344.28
2023-12-11T10:46:53.130Z,97350.34
2023-12-11T10:49:21.102Z,97336.97
2023-12-11T10:51:50.085Z,97340.47
2023-12-11T10:54:18.053Z,97339.66
2023-12-11T10:56:49.041Z,97333.47
2023-12-11T10:59:17.544Z,97325.75
2023-12-11T11:01:49.088Z,97318.13
2023-12-11T11:04:20.105Z,97313.63
2023-12-11T11:06:54.308Z,97312.31
2023-12-11T11:09:40.231Z,97290.31
2023-12-11T11:12:29.327Z,97303.31
2023-12-11T11:14:56.607Z,97304.72
2023-12-11T11:17:23.949Z,97317.56
2023-12-11T11:20:13.711Z,97320.56
2023-12-11T11:22:41.692Z,97307.50
2023-12-11T11:25:33.587Z,97311.50
2023-12-11T11:28:02.275Z,97310.53
2023-12-11T11:30:47.669Z,97322.06
2023-12-11T11:33:15.153Z,97316.50
2023-12-11T11:35:48.119Z,97311.34
2023-12-11T11:38:19.385Z,97303.13
2023-12-11T11:40:49.580Z,97308.22
2023-12-11T11:43:19.308Z,97286.25
2023-12-11T11:45:46.593Z,97292.16
2023-12-11T11:48:14.122Z,97286.69
2023-12-11T11:50:53.669Z,97284.16
2023-12-11T11:53:22.471Z,97286.88
2023-12-11T11:55:49.730Z,97270.22
2023-12-11T11:58:17.233Z,97262.97
2023-12-11T12:00:46.498Z,97265.50
2023-12-11T12:03:14.202Z,97252.44
2023-12-11T12:05:58.816Z,97249.16
2023-12-11T12:08:26.284Z,97242.63
2023-12-11T12:10:58.393Z,97242.81
2023-12-11T12:13:26.103Z,97246.06
2023-12-11T12:15:54.299Z,97241.53
2023-12-11T12:18:21.911Z,97236.47
2023-12-11T12:21:03.317Z,97231.19
2023-12-11T12:23:31.139Z,97227.63
2023-12-11T12:26:02.405Z,97224.66
2023-12-11T12:28:30.170Z,97230.56
2023-12-11T12:30:57.885Z,97224.06
2023-12-11T12:33:26.526Z,97229.44
2023-12-11T12:35:54.297Z,97230.28
2023-12-11T12:38:22.713Z,97231.00
2023-12-11T12:40:50.224Z,97222.81
2023-12-11T12:43:18.089Z,97226.81
2023-12-11T12:45:46.056Z,97222.22
2023-12-11T12:48:14.726Z,97233.16
2023-12-11T12:50:41.970Z,97231.56
2023-12-11T12:53:14.796Z,97227.69
2023-12-11T12:55:42.240Z,97224.75
2023-12-11T12:58:10.357Z,97227.25
2023-12-11T13:00:38.541Z,97225.38
2023-12-11T13:03:09.304Z,97228.56
2023-12-11T13:05:47.566Z,97232.38
2023-12-11T13:08:16.137Z,97244.19
2023-12-11T13:10:58.555Z,97222.84
2023-12-11T13:13:28.281Z,97218.22
2023-12-11T13:15:57.816Z,97228.13
2023-12-11T13:18:26.451Z,97213.06
2023-12-11T13:20:53.662Z,97215.03
2023-12-11T13:23:21.111Z,97228.13
2023-12-11T13:25:48.401Z,97228.13
2023-12-11T13:28:15.802Z,97227.38
2023-12-11T13:30:45.564Z,97223.28
2023-12-11T13:33:12.800Z,97215.97
2023-12-11T13:35:39.782Z,97228.22
2023-12-11T13:38:07.093Z,97210.81
2023-12-11T13:40:34.414Z,97211.78
2023-12-11T13:43:02.662Z,97223.44
2023-12-11T13:45:29.645Z,97226.72
2023-12-11T13:47:57.113Z,97228.41
2023-12-11T13:50:24.261Z,97236.22
2023-12-11T13:52:51.503Z,97237.94
2023-12-11T13:55:18.856Z,97243.22
2023-12-11T13:57:46.934Z,97241.09
2023-12-11T14:00:23.023Z,97246.38
2023-12-11T14:03:00.915Z,97245.31
2023-12-11T14:05:34.333Z,97239.94
2023-12-11T14:08:04.439Z,97235.50
2023-12-11T14:10:32.541Z,97246.03
2023-12-11T14:13:00.011Z,97244.19
2023-12-11T14:15:28.853Z,97248.59
2023-12-11T14:17:56.214Z,97238.34
2023-12-11T14:20:23.543Z,97248.16
2023-12-11T14:22:50.977Z,97247.31
2023-12-11T14:25:18.208Z,97247.72
2023-12-11T14:27:45.743Z,97250.00
2023-12-11T14:30:13.294Z,97252.34
2023-12-11T14:32:40.785Z,97245.41
2023-12-11T14:35:08.563Z,97240.22
2023-12-11T14:37:36.256Z,97239.78
2023-12-11T14:40:03.774Z,97242.31
2023-12-11T14:42:32.409Z,97229.16
2023-12-11T14:45:02.067Z,97234.50
2023-12-11T14:47:30.113Z,97236.09
2023-12-11T14:49:58.571Z,97237.16
2023-12-11T14:52:38.156Z,97232.53
2023-12-11T14:55:07.930Z,97238.63
2023-12-11T14:57:54.901Z,97233.34
2023-12-11T15:00:22.518Z,97242.00
2023-12-11T15:02:49.946Z,97236.72
2023-12-11T15:05:36.616Z,97247.38
2023-12-11T15:08:27.217Z,97242.97
2023-12-11T15:10:55.310Z,97241.56
2023-12-11T15:13:22.709Z,97242.81
2023-12-11T15:15:50.187Z,97249.69
2023-12-11T15:18:17.656Z,97242.72
2023-12-11T15:20:44.749Z,97240.19
2023-12-11T15:23:13.081Z,97241.25
2023-12-11T15:25:42.050Z,97246.63
2023-12-11T15:28:36.591Z,97240.19
2023-12-11T15:31:13.643Z,97248.00
2023-12-11T15:33:42.245Z,97249.59
2023-12-11T15:36:16.545Z,97262.63
2023-12-11T15:38:44.096Z,97258.88
2023-12-11T15:41:12.669Z,97258.78
2023-12-11T15:44:15.686Z,97260.34
2023-12-11T15:46:45.749Z,97257.63
2023-12-11T15:49:13.213Z,97256.69
2023-12-11T15:51:40.386Z,97250.88
2023-12-11T15:54:35.565Z,97254.25
2023-12-11T15:57:02.877Z,97253.19
2023-12-11T15:59:32.025Z,97249.81
2023-12-11T16:01:59.695Z,97255.94
2023-12-11T16:04:27.493Z,97259.41
2023-12-11T16:06:55.175Z,97251.50
2023-12-11T16:09:22.495Z,97253.19
2023-12-11T16:11:49.816Z,97260.25
2023-12-11T16:14:17.217Z,97263.84
2023-12-11T16:16:44.338Z,97245.28
2023-12-11T16:19:15.493Z,97261.97
2023-12-11T16:21:42.643Z,97267.97
2023-12-11T16:24:10.252Z,97273.63
2023-12-11T16:26:37.389Z,97272.78
2023-12-11T16:29:04.945Z,97264.06
2023-12-11T16:31:32.419Z,97255.19
2023-12-11T16:34:02.610Z,97259.41
2023-12-11T16:36:30.095Z,97245.59
2023-12-11T16:38:57.604Z,97250.34
2023-12-11T16:41:29.056Z,97255.94
2023-12-11T16:43:57.352Z,97265.44
2023-12-11T16:46:25.772Z,97264.41
2023-12-11T16:48:53.223Z,97269.56
2023-12-11T16:51:20.431Z,97284.31
2023-12-11T16:53:47.886Z,97270.59
2023-12-11T16:56:16.306Z,97275.56
2023-12-11T16:58:43.825Z,97263.66
2023-12-11T17:01:14.389Z,97265.28
2023-12-11T17:03:42.301Z,97281.63
2023-12-11T17:06:16.549Z,97277.69
2023-12-11T17:08:44.805Z,97273.72
2023-12-11T17:11:13.034Z,97268.09
2023-12-11T17:14:06.883Z,97279.09
2023-12-11T17:16:33.868Z,97274.13
2023-12-11T17:19:01.326Z,97285.69
2023-12-11T17:21:33.905Z,97285.41
2023-12-11T17:24:04.025Z,97291.84
2023-12-11T17:26:31.099Z,97308.50
2023-12-11T17:28:59.493Z,97330.53
2023-12-11T17:31:26.519Z,97319.47
2023-12-11T17:33:53.913Z,97315.69
2023-12-11T17:36:22.764Z,97316.66
2023-12-11T17:38:50.858Z,97304.69
2023-12-11T17:41:18.820Z,97290.69
2023-12-11T17:43:46.176Z,97295.31
2023-12-11T17:46:13.991Z,97307.50
2023-12-11T17:48:41.340Z,97290.75
2023-12-11T17:51:10.150Z,97296.41
2023-12-11T17:53:38.679Z,97295.88
2023-12-11T17:56:09.570Z,97297.97
2023-12-11T17:58:39.233Z,97302.25
2023-12-11T18:01:29.437Z,97320.03
2023-12-11T18:03:56.996Z,97317.84
2023-12-11T18:06:24.251Z,97337.88
2023-12-11T18:08:51.670Z,97336.00
2023-12-11T18:11:18.823Z,97348.63
2023-12-11T18:13:47.215Z,97350.31
2023-12-11T18:16:15.020Z,97347.00
2023-12-11T18:18:42.470Z,97358.81
2023-12-11T18:21:09.661Z,97353.56
2023-12-11T18:23:37.106Z,97368.41
2023-12-11T18:26:04.361Z,97376.41
2023-12-11T18:28:31.675Z,97379.78
2023-12-11T18:30:58.657Z,97390.69
2023-12-11T18:33:26.074Z,97384.56
2023-12-11T18:35:53.685Z,97387.97
2023-12-11T18:38:31.250Z,97391.16
2023-12-11T18:44:05.287Z,97398.78
2023-12-11T18:46:32.810Z,97390.03
2023-12-11T18:49:01.267Z,97400.09
2023-12-11T18:51:31.880Z,97392.94
2023-12-11T18:53:59.576Z,97400.94
2023-12-11T18:56:26.755Z,97400.00
2023-12-11T18:58:54.418Z,97401.53
2023-12-11T19:01:22.457Z,97411.97
2023-12-11T19:03:50.414Z,97417.13
2023-12-11T19:06:22.900Z,97425.03
2023-12-11T19:08:50.256Z,97422.59
2023-12-11T19:11:17.553Z,97427.09
2023-12-11T19:13:45.164Z,97432.34
2023-12-11T19:16:12.205Z,97428.06
2023-12-11T19:18:39.649Z,97432.94
2023-12-11T19:21:06.957Z,97430.28
2023-12-11T19:23:37.022Z,97428.78
2023-12-11T19:26:07.062Z,97432.94
2023-12-11T19:28:34.659Z,97438.38
2023-12-11T19:31:01.995Z,97449.56
2023-12-11T19:33:30.307Z,97450.78
2023-12-11T19:35:57.408Z,97453.25
2023-12-11T19:39:22.500Z,97453.25
2023-12-11T19:41:49.545Z,97455.50
2023-12-11T19:44:16.864Z,97460.38
2023-12-11T19:46:45.207Z,97461.13
2023-12-11T19:49:12.778Z,97474.94
2023-12-11T19:51:43.046Z,97473.19
2023-12-11T19:54:10.402Z,97482.94
2023-12-11T19:56:37.438Z,97483.13
2023-12-11T19:59:05.014Z,97496.31
2023-12-11T20:01:32.296Z,97495.03
2023-12-11T20:03:59.804Z,97489.50
2023-12-11T20:06:28.783Z,97499.94
2023-12-11T20:08:56.236Z,97500.88
2023-12-11T20:11:23.403Z,97504.81
2023-12-11T20:13:51.927Z,97497.78
2023-12-11T20:16:19.114Z,97499.38
2023-12-11T20:18:46.765Z,97498.34
2023-12-11T20:21:14.140Z,97502.44
2023-12-11T20:23:41.658Z,97512.66
2023-12-11T20:26:12.832Z,97508.81
2023-12-11T20:28:40.295Z,97512.22
2023-12-11T20:31:17.741Z,97511.53
2023-12-11T20:33:46.209Z,97523.19
2023-12-11T20:36:22.209Z,97529.13
2023-12-11T20:38:49.655Z,97533.44
2023-12-11T20:41:25.970Z,97550.34
2023-12-11T20:43:59.133Z,97547.81
2023-12-11T20:46:27.620Z,97550.25
2023-12-11T20:48:55.471Z,97560.72
2023-12-11T20:51:24.192Z,97559.38
2023-12-11T20:53:52.582Z,97565.03
2023-12-11T20:56:30.030Z,97571.06
2023-12-11T20:59:00.098Z,97574.44
2023-12-11T21:01:32.887Z,97578.75
2023-12-11T21:04:02.671Z,97588.28
2023-12-11T21:06:31.049Z,97589.13
2023-12-11T21:09:00.488Z,97590.91
2023-12-11T21:11:28.258Z,97596.19
2023-12-11T21:13:56.014Z,97590.75
2023-12-11T21:16:23.301Z,97593.47
2023-12-11T21:18:51.494Z,97596.00
2023-12-11T21:21:23.629Z,97594.97
2023-12-11T21:23:51.469Z,97603.25
2023-12-11T21:26:21.127Z,97599.75
2023-12-11T21:28:50.043Z,97605.97
2023-12-11T21:31:30.582Z,97611.06
2023-12-11T21:33:59.270Z,97617.41
2023-12-11T21:36:30.860Z,97623.34
2023-12-11T21:39:00.589Z,97612.72
2023-12-11T21:41:28.340Z,97618.94
2023-12-11T21:43:57.695Z,97620.88
2023-12-11T21:46:27.248Z,97627.09
2023-12-11T21:49:02.914Z,97621.84
2023-12-11T21:51:30.505Z,97629.38
2023-12-11T21:53:57.838Z,97644.25
2023-12-11T21:56:26.667Z,97645.84
2023-12-11T21:58:54.558Z,97646.81
2023-12-11T22:01:21.804Z,97648.66
2023-12-11T22:03:49.421Z,97661.56
2023-12-11T22:06:16.564Z,97666.56
2023-12-11T22:08:43.880Z,97667.34
2023-12-11T22:11:15.308Z,97670.97
2023-12-11T22:13:46.282Z,97676.31
2023-12-11T22:16:15.773Z,97674.66
2023-12-11T22:18:43.328Z,97685.25
2023-12-11T22:21:10.368Z,97676.25
2023-12-11T22:23:37.613Z,97684.50
2023-12-11T22:26:04.834Z,97687.88
2023-12-11T22:28:33.065Z,97691.00
2023-12-11T22:31:00.723Z,97700.28
2023-12-11T22:33:28.015Z,97703.75
2023-12-11T22:35:55.153Z,97702.72
2023-12-11T22:38:22.379Z,97694.16
2023-12-11T22:40:49.362Z,97710.69
2023-12-11T22:43:16.718Z,97701.13
2023-12-11T22:45:43.843Z,97711.13
2023-12-11T22:48:11.759Z,97705.03
2023-12-11T22:50:38.745Z,97711.72
2023-12-11T22:53:05.917Z,97701.13
2023-12-11T22:55:32.946Z,97709.41
2023-12-11T22:58:09.785Z,97699.56
2023-12-11T23:00:43.700Z,97713.59
2023-12-11T23:03:11.061Z,97715.53
2023-12-11T23:05:38.157Z,97717.47
2023-12-11T23:08:05.516Z,97719.94
2023-12-11T23:10:32.500Z,97711.97
2023-12-11T23:12:59.738Z,97720.00
2023-12-11T23:15:26.647Z,97728.84
2023-12-11T23:17:53.988Z,97723.44
2023-12-11T23:20:21.017Z,97723.53
2023-12-11T23:22:48.330Z,97726.16
2023-12-11T23:25:17.193Z,97732.25
2023-12-11T23:27:45.691Z,97727.06
2023-12-11T23:30:12.772Z,97739.47
2023-12-11T23:32:40.065Z,97742.63
2023-12-11T23:35:08.024Z,97747.00
2023-12-11T23:37:35.568Z,97738.19
2023-12-11T23:40:03.005Z,97742.19
2023-12-11T23:42:32.243Z,97743.75
2023-12-11T23:44:59.941Z,97742.78
2023-12-11T23:47:27.245Z,97745.44
2023-12-11T23:49:54.473Z,97740.25
2023-12-11T23:52:21.841Z,97737.38
2023-12-11T23:54:48.918Z,97740.75
2023-12-11T23:57:16.194Z,97739.84
2023-12-11T23:59:43.255Z,97753.09
